createdAt,value
2023-01-18T00:00:32.304Z,38.28
2023-01-18T00:03:00.218Z,31.77
2023-01-18T00:05:28.111Z,37.35
2023-01-18T00:07:57.168Z,40.97
2023-01-18T00:10:25.147Z,40.40
2023-01-18T00:12:52.723Z,43.20
2023-01-18T00:15:20.304Z,36.70
2023-01-18T00:17:52.483Z,41.30
2023-01-18T00:20:21.649Z,41.35
2023-01-18T00:22:49.610Z,37.75
2023-01-18T00:25:19.220Z,39.20
2023-01-18T00:27:48.198Z,40.38
2023-01-18T00:30:18.321Z,35.28
2023-01-18T00:32:46.068Z,32.65
2023-01-18T00:35:13.861Z,35.08
2023-01-18T00:37:41.585Z,33.63
2023-01-18T00:40:10.999Z,35.08
2023-01-18T00:42:58.132Z,38.33
2023-01-18T00:45:25.878Z,36.70
2023-01-18T00:47:53.413Z,45.80
2023-01-18T00:50:22.420Z,44.80
2023-01-18T00:52:50.704Z,37.63
2023-01-18T00:55:19.160Z,44.73
2023-01-18T00:57:48.801Z,42.13
2023-01-18T01:00:16.746Z,45.92
2023-01-18T01:02:44.521Z,38.58
2023-01-18T01:05:35.199Z,55.22
2023-01-18T01:08:03.087Z,46.50
2023-01-18T01:10:30.691Z,43.38
2023-01-18T01:13:17.569Z,49.73
2023-01-18T01:16:02.578Z,51.45
2023-01-18T01:18:47.782Z,50.05
2023-01-18T01:21:32.895Z,40.22
2023-01-18T01:24:18.201Z,55.13
2023-01-18T01:26:46.024Z,45.22
2023-01-18T01:29:15.887Z,64.75
2023-01-18T01:31:43.656Z,47.45
2023-01-18T01:34:11.390Z,59.30
2023-01-18T01:36:39.115Z,52.55
2023-01-18T01:39:07.082Z,57.72
2023-01-18T01:41:36.036Z,54.35
2023-01-18T01:44:06.608Z,46.17
2023-01-18T01:46:40.746Z,50.65
2023-01-18T01:49:10.469Z,49.05
2023-01-18T01:51:39.789Z,49.50
2023-01-18T01:54:10.026Z,45.83
2023-01-18T01:56:38.358Z,46.28
2023-01-18T01:59:06.193Z,50.83
2023-01-18T02:01:34.389Z,53.05
2023-01-18T02:04:04.006Z,40.53
2023-01-18T02:06:34.956Z,45.13
2023-01-18T02:09:04.966Z,42.97
2023-01-18T02:11:32.616Z,40.15
2023-01-18T02:14:02.224Z,40.80
2023-01-18T02:16:42.505Z,34.00
2023-01-18T02:19:22.332Z,46.72
2023-01-18T02:21:54.316Z,44.75
2023-01-18T02:24:45.872Z,37.30
2023-01-18T02:27:22.859Z,39.55
2023-01-18T02:29:59.924Z,34.28
2023-01-18T02:32:34.373Z,39.67
2023-01-18T02:35:09.104Z,37.20
2023-01-18T02:37:43.595Z,34.95
2023-01-18T02:40:17.309Z,31.52
2023-01-18T02:43:03.456Z,42.40
2023-01-18T02:45:52.562Z,40.95
2023-01-18T02:48:22.251Z,37.65
2023-01-18T02:50:50.104Z,46.53
2023-01-18T02:53:17.975Z,42.85
2023-01-18T02:55:49.227Z,45.13
2023-01-18T02:58:22.935Z,55.42
2023-01-18T03:00:57.112Z,50.80
2023-01-18T03:03:25.868Z,49.03
2023-01-18T03:05:55.614Z,46.58
2023-01-18T03:08:27.372Z,47.65
2023-01-18T03:10:59.040Z,45.28
2023-01-18T03:13:32.334Z,42.70
2023-01-18T03:16:05.724Z,44.85
2023-01-18T03:18:39.376Z,51.10
2023-01-18T03:21:08.418Z,42.17
2023-01-18T03:23:38.386Z,40.42
2023-01-18T03:26:07.791Z,40.25
2023-01-18T03:28:54.011Z,38.03
2023-01-18T03:31:45.730Z,36.80
2023-01-18T03:34:18.858Z,37.88
2023-01-18T03:36:47.940Z,33.83
2023-01-18T03:39:20.281Z,39.13
2023-01-18T03:41:50.167Z,39.53
2023-01-18T03:44:20.461Z,44.47
2023-01-18T03:46:49.389Z,47.20
2023-01-18T03:49:18.092Z,44.88
2023-01-18T03:51:54.417Z,49.17
2023-01-18T03:54:26.613Z,43.33
2023-01-18T03:56:59.016Z,44.05
2023-01-18T03:59:31.039Z,44.53
2023-01-18T04:01:59.986Z,42.30
2023-01-18T04:04:27.688Z,40.03
2023-01-18T04:06:55.415Z,41.28
2023-01-18T04:09:23.100Z,42.70
2023-01-18T04:11:50.701Z,43.20
2023-01-18T04:14:18.434Z,42.92
2023-01-18T04:16:46.013Z,43.37
2023-01-18T04:19:14.983Z,43.95
2023-01-18T04:21:42.504Z,34.63
2023-01-18T04:24:11.227Z,40.75
2023-01-18T04:26:38.896Z,40.53
2023-01-18T04:29:06.621Z,39.50
2023-01-18T04:31:34.579Z,36.35
2023-01-18T04:34:02.154Z,33.35
2023-01-18T04:36:31.553Z,32.15
2023-01-18T04:38:59.316Z,35.67
2023-01-18T04:41:27.083Z,41.35
2023-01-18T04:43:54.804Z,38.30
2023-01-18T04:46:22.634Z,44.73
2023-01-18T04:48:51.725Z,37.88
2023-01-18T04:51:19.852Z,38.53
2023-01-18T04:53:49.007Z,37.20
2023-01-18T04:56:17.015Z,31.70
2023-01-18T04:58:44.868Z,37.28
2023-01-18T05:01:14.167Z,40.33
2023-01-18T05:03:42.096Z,39.15
2023-01-18T05:06:11.884Z,44.47
2023-01-18T05:08:41.003Z,32.23
2023-01-18T05:11:11.805Z,35.97
2023-01-18T05:13:39.987Z,37.05
2023-01-18T05:16:08.195Z,37.72
2023-01-18T05:18:35.773Z,41.42
2023-01-18T05:21:03.495Z,41.78
2023-01-18T05:23:31.099Z,46.88
2023-01-18T05:25:59.479Z,59.33
2023-01-18T05:28:29.035Z,46.65
2023-01-18T05:30:56.633Z,57.30
2023-01-18T05:33:24.331Z,49.33
2023-01-18T05:35:52.580Z,50.72
2023-01-18T05:38:20.980Z,49.10
2023-01-18T05:40:52.294Z,50.47
2023-01-18T05:43:20.311Z,49.38
2023-01-18T05:45:49.706Z,50.72
2023-01-18T05:48:17.911Z,45.67
2023-01-18T05:50:47.221Z,48.33
2023-01-18T05:53:16.391Z,47.42
2023-01-18T05:55:44.799Z,45.67
2023-01-18T05:58:12.599Z,38.80
2023-01-18T06:00:40.137Z,44.65
2023-01-18T06:03:10.815Z,45.92
2023-01-18T06:05:38.703Z,34.13
2023-01-18T06:08:06.809Z,45.57
2023-01-18T06:10:34.628Z,49.03
2023-01-18T06:13:02.330Z,40.83
2023-01-18T06:15:29.939Z,45.95
2023-01-18T06:17:59.341Z,51.42
2023-01-18T06:20:30.622Z,50.70
2023-01-18T06:22:59.266Z,46.35
2023-01-18T06:25:27.459Z,43.60
2023-01-18T06:27:55.018Z,48.25
2023-01-18T06:30:22.960Z,46.90
2023-01-18T06:32:51.448Z,43.47
2023-01-18T06:35:20.326Z,42.50
2023-01-18T06:37:49.189Z,48.70
2023-01-18T06:40:17.613Z,46.80
2023-01-18T06:42:48.971Z,45.85
2023-01-18T06:45:19.504Z,43.15
2023-01-18T06:47:47.056Z,51.03
2023-01-18T06:50:15.345Z,55.78
2023-01-18T06:52:43.740Z,49.30
2023-01-18T06:55:13.490Z,44.40
2023-01-18T06:57:41.096Z,50.00
2023-01-18T07:00:10.728Z,43.38
2023-01-18T07:02:38.539Z,43.75
2023-01-18T07:05:06.921Z,40.33
2023-01-18T07:07:35.260Z,36.47
2023-01-18T07:10:02.760Z,41.90
2023-01-18T07:12:31.666Z,42.20
2023-01-18T07:15:01.608Z,39.25
2023-01-18T07:17:32.687Z,40.22
2023-01-18T07:20:00.184Z,40.60
2023-01-18T07:22:36.169Z,46.17
2023-01-18T07:25:04.054Z,39.25
2023-01-18T07:27:33.212Z,41.53
2023-01-18T07:30:00.774Z,43.72
2023-01-18T07:32:28.482Z,43.43
2023-01-18T07:34:58.569Z,41.38
2023-01-18T07:37:26.972Z,41.20
2023-01-18T07:39:54.529Z,50.15
2023-01-18T07:42:22.101Z,46.22
2023-01-18T07:44:51.148Z,47.00
2023-01-18T07:47:18.984Z,39.75
2023-01-18T07:49:46.868Z,48.20
2023-01-18T07:52:14.529Z,59.42
2023-01-18T07:54:42.258Z,46.45
2023-01-18T07:57:09.835Z,47.17
2023-01-18T07:59:40.041Z,43.88
2023-01-18T08:02:12.843Z,39.65
2023-01-18T08:04:41.910Z,40.20
2023-01-18T08:07:09.526Z,39.38
2023-01-18T08:09:37.072Z,43.53
2023-01-18T08:12:06.823Z,40.80
2023-01-18T08:14:34.904Z,38.17
2023-01-18T08:17:02.606Z,47.10
2023-01-18T08:19:31.774Z,51.17
2023-01-18T08:21:59.672Z,44.67
2023-01-18T08:24:29.509Z,40.13
2023-01-18T08:26:57.377Z,45.45
2023-01-18T08:29:25.283Z,45.92
2023-01-18T08:31:53.577Z,42.47
2023-01-18T08:34:21.927Z,42.10
2023-01-18T08:36:51.055Z,43.33
2023-01-18T08:39:18.876Z,39.80
2023-01-18T08:41:47.478Z,46.80
2023-01-18T08:44:15.026Z,42.13
2023-01-18T08:46:42.652Z,40.38
2023-01-18T08:49:11.853Z,45.85
2023-01-18T08:51:39.455Z,41.80
2023-01-18T08:54:08.515Z,38.83
2023-01-18T08:56:36.280Z,49.10
2023-01-18T08:59:04.221Z,38.72
2023-01-18T09:01:32.044Z,40.37
2023-01-18T09:03:59.638Z,47.95
2023-01-18T09:06:32.076Z,38.92
2023-01-18T09:08:59.892Z,36.05
2023-01-18T09:11:29.160Z,43.58
2023-01-18T09:14:01.767Z,38.88
2023-01-18T09:16:30.979Z,35.05
2023-01-18T09:18:58.761Z,40.73
2023-01-18T09:21:28.022Z,39.13
2023-01-18T09:23:55.792Z,42.40
2023-01-18T09:26:23.427Z,42.38
2023-01-18T09:28:53.458Z,41.10
2023-01-18T09:31:22.994Z,44.50
2023-01-18T09:33:54.022Z,42.78
2023-01-18T09:36:26.340Z,44.40
2023-01-18T09:38:54.297Z,40.55
2023-01-18T09:41:29.110Z,48.67
2023-01-18T09:44:01.879Z,39.03
2023-01-18T09:46:29.527Z,42.55
2023-01-18T09:48:59.306Z,49.25
2023-01-18T09:51:31.025Z,47.67
2023-01-18T09:54:10.114Z,40.83
2023-01-18T09:56:43.463Z,44.78
2023-01-18T09:59:20.037Z,50.38
2023-01-18T10:01:48.464Z,42.53
2023-01-18T10:04:18.584Z,46.05
2023-01-18T10:06:49.500Z,47.67
2023-01-18T10:09:19.600Z,44.55
2023-01-18T10:11:54.254Z,49.05
2023-01-18T10:14:35.782Z,47.75
2023-01-18T10:17:05.291Z,44.83
2023-01-18T10:19:33.700Z,47.50
2023-01-18T10:22:06.616Z,51.95
2023-01-18T10:24:42.344Z,54.03
2023-01-18T10:27:28.465Z,47.47
2023-01-18T10:30:11.249Z,45.50
2023-01-18T10:32:39.723Z,49.10
2023-01-18T10:35:14.964Z,50.10
2023-01-18T10:37:45.396Z,50.77
2023-01-18T10:40:15.614Z,57.85
2023-01-18T10:42:46.446Z,50.15
2023-01-18T10:45:20.299Z,54.72
2023-01-18T10:47:48.983Z,52.77
2023-01-18T10:50:18.557Z,48.58
2023-01-18T10:52:46.386Z,46.70
2023-01-18T10:55:17.533Z,46.58
2023-01-18T10:57:55.158Z,50.75
2023-01-18T11:00:40.432Z,45.88
2023-01-18T11:03:17.843Z,53.35
2023-01-18T11:05:46.794Z,54.33
2023-01-18T11:08:22.063Z,51.40
2023-01-18T11:11:12.448Z,49.08
2023-01-18T11:13:45.357Z,45.90
2023-01-18T11:16:17.862Z,50.15
2023-01-18T11:19:10.705Z,51.70
2023-01-18T11:21:50.645Z,49.33
2023-01-18T11:24:41.551Z,49.33
2023-01-18T11:27:24.992Z,48.65
2023-01-18T11:30:29.159Z,49.75
2023-01-18T11:33:49.286Z,44.83
2023-01-18T11:40:10.043Z,42.33
2023-01-18T11:42:39.152Z,42.47
2023-01-18T11:45:16.307Z,45.38
2023-01-18T11:47:55.304Z,46.22
2023-01-18T11:50:58.251Z,38.13
2023-01-18T11:53:51.006Z,44.63
2023-01-18T11:56:29.141Z,40.70
2023-01-18T11:59:15.326Z,43.27
2023-01-18T12:02:19.813Z,51.10
2023-01-18T12:05:01.357Z,39.05
2023-01-18T12:07:59.474Z,40.72
2023-01-18T12:10:38.275Z,38.83
2023-01-18T12:13:41.743Z,41.85
2023-01-18T12:16:17.221Z,41.92
2023-01-18T12:19:19.692Z,47.33
2023-01-18T12:22:02.767Z,37.40
2023-01-18T12:24:38.511Z,39.95
2023-01-18T12:27:14.213Z,43.08
2023-01-18T12:30:23.630Z,37.10
2023-01-18T12:33:11.241Z,37.50
2023-01-18T12:35:56.760Z,42.63
2023-01-18T12:38:27.919Z,37.28
2023-01-18T12:41:16.322Z,37.88
2023-01-18T12:43:57.490Z,33.33
2023-01-18T12:46:29.450Z,37.33
2023-01-18T12:49:01.286Z,32.45
2023-01-18T12:51:32.689Z,35.72
2023-01-18T12:54:03.621Z,33.67
2023-01-18T12:56:33.403Z,34.22
2023-01-18T12:59:04.768Z,35.17
2023-01-18T13:01:40.043Z,33.83
2023-01-18T13:04:14.257Z,32.40
2023-01-18T13:06:49.195Z,29.25
2023-01-18T13:09:20.119Z,29.23
2023-01-18T13:11:48.300Z,31.90
2023-01-18T13:14:21.327Z,30.73
2023-01-18T13:16:52.313Z,31.10
2023-01-18T13:19:24.711Z,29.90
2023-01-18T13:22:03.005Z,28.95
2023-01-18T13:24:40.778Z,34.80
2023-01-18T13:27:10.114Z,27.70
2023-01-18T13:29:39.576Z,28.25
2023-01-18T13:32:22.907Z,30.83
2023-01-18T13:35:17.972Z,28.55
2023-01-18T13:37:48.726Z,29.45
2023-01-18T13:40:24.502Z,29.70
2023-01-18T13:42:52.243Z,25.48
2023-01-18T13:45:23.778Z,24.57
2023-01-18T13:48:03.816Z,27.27
2023-01-18T13:50:45.073Z,32.75
2023-01-18T13:53:31.568Z,25.98
2023-01-18T13:56:33.350Z,27.38
2023-01-18T13:59:06.759Z,26.40
2023-01-18T14:01:37.292Z,27.20
2023-01-18T14:04:17.766Z,22.80
2023-01-18T14:06:46.476Z,25.38
2023-01-18T14:09:16.003Z,23.80
2023-01-18T14:11:52.185Z,22.48
2023-01-18T14:14:30.001Z,24.15
2023-01-18T14:17:02.213Z,19.17
2023-01-18T14:19:30.673Z,17.45
2023-01-18T14:22:27.059Z,16.55
2023-01-18T14:25:17.412Z,16.33
2023-01-18T14:27:49.076Z,16.45
2023-01-18T14:30:22.719Z,16.43
2023-01-18T14:32:56.962Z,14.82
2023-01-18T14:35:26.114Z,16.07
2023-01-18T14:37:54.374Z,16.40
2023-01-18T14:40:24.448Z,15.80
2023-01-18T14:42:54.359Z,16.58
2023-01-18T14:45:29.149Z,16.83
2023-01-18T14:48:00.608Z,15.73
2023-01-18T14:50:33.300Z,17.73
2023-01-18T14:53:01.643Z,17.33
2023-01-18T14:55:32.348Z,15.80
2023-01-18T14:58:05.763Z,17.80
2023-01-18T15:00:33.520Z,19.08
2023-01-18T15:03:03.062Z,16.17
2023-01-18T15:05:31.504Z,15.55
2023-01-18T15:07:59.498Z,18.85
2023-01-18T15:10:28.106Z,22.80
2023-01-18T15:12:58.537Z,19.38
2023-01-18T15:15:30.285Z,19.30
2023-01-18T15:18:04.418Z,16.60
2023-01-18T15:20:32.361Z,16.97
2023-01-18T15:23:00.580Z,18.08
2023-01-18T15:25:33.122Z,19.83
2023-01-18T15:28:18.412Z,18.13
2023-01-18T15:30:52.063Z,20.23
2023-01-18T15:33:23.564Z,18.92
2023-01-18T15:35:54.733Z,20.88
2023-01-18T15:38:22.353Z,16.33
2023-01-18T15:40:56.815Z,22.27
2023-01-18T15:43:29.203Z,21.40
2023-01-18T15:45:57.713Z,20.30
2023-01-18T15:48:28.143Z,18.75
2023-01-18T15:50:57.130Z,26.77
2023-01-18T15:53:30.033Z,23.20
2023-01-18T15:55:59.679Z,24.13
2023-01-18T15:58:32.288Z,20.20
2023-01-18T16:01:02.005Z,22.70
2023-01-18T16:03:35.471Z,21.88
2023-01-18T16:06:10.418Z,19.65
2023-01-18T16:08:39.875Z,25.30
2023-01-18T16:11:27.207Z,28.27
2023-01-18T16:14:01.454Z,22.45
2023-01-18T16:16:30.148Z,22.90
2023-01-18T16:19:06.781Z,24.38
2023-01-18T16:21:40.578Z,27.25
2023-01-18T16:24:23.569Z,22.60
2023-01-18T16:26:51.286Z,23.58
2023-01-18T16:29:19.207Z,18.83
2023-01-18T16:31:48.206Z,24.48
2023-01-18T16:34:21.460Z,24.30
2023-01-18T16:36:55.577Z,20.55
2023-01-18T16:39:24.448Z,21.08
2023-01-18T16:41:56.403Z,22.90
2023-01-18T16:44:24.638Z,21.63
2023-01-18T16:46:53.993Z,23.25
2023-01-18T16:49:23.069Z,20.65
2023-01-18T16:51:51.398Z,20.02
2023-01-18T16:54:19.069Z,24.83
2023-01-18T16:56:47.897Z,21.38
2023-01-18T16:59:18.509Z,19.87
2023-01-18T17:01:46.642Z,25.00
2023-01-18T17:04:14.496Z,24.90
2023-01-18T17:06:44.669Z,23.42
2023-01-18T17:09:22.006Z,27.05
2023-01-18T17:11:50.159Z,22.88
2023-01-18T17:14:18.318Z,19.27
2023-01-18T17:16:46.624Z,23.40
2023-01-18T17:19:14.665Z,27.58
2023-01-18T17:21:45.342Z,23.52
2023-01-18T17:24:14.529Z,17.50
2023-01-18T17:26:43.016Z,17.15
2023-01-18T17:29:17.382Z,19.45
2023-01-18T17:31:52.394Z,19.05
2023-01-18T17:34:27.769Z,19.77
2023-01-18T17:36:59.148Z,17.55
2023-01-18T17:39:37.433Z,17.00
2023-01-18T17:42:14.349Z,21.23
2023-01-18T17:44:44.256Z,16.35
2023-01-18T17:47:11.993Z,16.20
2023-01-18T17:49:39.687Z,17.98
2023-01-18T17:52:08.846Z,16.48
2023-01-18T17:54:36.466Z,19.50
2023-01-18T17:57:08.647Z,17.00
2023-01-18T17:59:36.151Z,20.65
2023-01-18T18:02:04.737Z,15.95
2023-01-18T18:04:32.489Z,20.02
2023-01-18T18:07:00.468Z,17.95
2023-01-18T18:09:29.558Z,19.27
2023-01-18T18:11:57.286Z,18.75
2023-01-18T18:14:24.855Z,17.85
2023-01-18T18:16:52.632Z,21.98
2023-01-18T18:19:21.340Z,18.40
2023-01-18T18:21:49.074Z,15.10
2023-01-18T18:24:16.788Z,22.80
2023-01-18T18:26:45.724Z,20.37
2023-01-18T18:29:13.617Z,17.50
2023-01-18T18:31:42.223Z,17.38
2023-01-18T18:34:10.231Z,17.63
2023-01-18T18:36:38.231Z,17.55
2023-01-18T18:39:06.649Z,17.92
2023-01-18T18:41:34.264Z,18.40
2023-01-18T18:44:03.285Z,18.90
2023-01-18T18:46:30.914Z,20.67
2023-01-18T18:48:58.621Z,19.00
2023-01-18T18:51:26.795Z,17.92
2023-01-18T18:53:54.361Z,15.77
2023-01-18T18:56:21.928Z,23.30
2023-01-18T18:58:49.466Z,17.08
2023-01-18T19:01:22.701Z,18.85
2023-01-18T19:03:51.128Z,17.50
2023-01-18T19:06:20.324Z,16.33
2023-01-18T19:08:48.359Z,17.67
2023-01-18T19:11:16.617Z,19.70
2023-01-18T19:13:44.437Z,16.67
2023-01-18T19:16:12.362Z,16.10
2023-01-18T19:18:41.579Z,15.75
2023-01-18T19:21:09.277Z,14.38
2023-01-18T19:23:36.796Z,18.27
2023-01-18T19:26:04.396Z,17.40
2023-01-18T19:28:32.026Z,19.23
2023-01-18T19:31:04.393Z,20.60
2023-01-18T19:33:32.050Z,14.98
2023-01-18T19:36:07.929Z,14.75
2023-01-18T19:38:40.807Z,14.00
2023-01-18T19:41:13.120Z,17.73
2023-01-18T19:43:41.817Z,14.40
2023-01-18T19:46:12.688Z,18.13
2023-01-18T19:48:40.313Z,17.42
2023-01-18T19:51:21.120Z,12.80
2023-01-18T19:53:49.586Z,13.80
2023-01-18T19:56:17.165Z,14.02
2023-01-18T19:58:45.096Z,18.00
2023-01-18T20:01:26.665Z,15.13
2023-01-18T20:03:58.076Z,14.75
2023-01-18T20:06:26.958Z,12.45
2023-01-18T20:08:54.538Z,15.32
2023-01-18T20:11:22.059Z,16.88
2023-01-18T20:13:50.844Z,15.73
2023-01-18T20:16:20.471Z,16.48
2023-01-18T20:18:48.631Z,13.25
2023-01-18T20:21:18.323Z,17.65
2023-01-18T20:23:47.614Z,13.70
2023-01-18T20:26:24.563Z,11.07
2023-01-18T20:28:53.465Z,14.63
2023-01-18T20:31:21.214Z,15.80
2023-01-18T20:33:48.804Z,10.45
2023-01-18T20:36:16.653Z,17.40
2023-01-18T20:38:45.035Z,11.43
2023-01-18T20:41:13.965Z,11.68
2023-01-18T20:43:41.615Z,21.63
2023-01-18T20:46:11.294Z,11.70
2023-01-18T20:48:42.864Z,21.38
2023-01-18T20:51:10.548Z,13.05
2023-01-18T20:53:39.128Z,18.95
2023-01-18T20:56:19.977Z,13.70
2023-01-18T20:58:56.055Z,17.77
2023-01-18T21:01:31.626Z,14.70
2023-01-18T21:04:00.100Z,15.77
2023-01-18T21:06:28.146Z,11.00
2023-01-18T21:08:56.922Z,15.70
2023-01-18T21:11:25.465Z,14.45
2023-01-18T21:13:53.884Z,13.03
2023-01-18T21:16:23.694Z,15.77
2023-01-18T21:18:55.892Z,16.55
2023-01-18T21:21:23.892Z,13.17
2023-01-18T21:23:51.652Z,17.85
2023-01-18T21:26:19.606Z,16.95
2023-01-18T21:28:47.402Z,12.60
2023-01-18T21:31:15.706Z,13.60
2023-01-18T21:33:45.339Z,12.52
2023-01-18T21:36:15.389Z,14.65
2023-01-18T21:38:43.292Z,17.08
2023-01-18T21:41:28.416Z,19.17
2023-01-18T21:44:13.595Z,17.33
2023-01-18T21:46:45.648Z,15.48
2023-01-18T21:49:42.912Z,13.75
2023-01-18T21:52:37.509Z,13.32
2023-01-18T21:55:05.990Z,13.88
2023-01-18T21:57:33.894Z,15.35
2023-01-18T22:00:01.874Z,12.90
2023-01-18T22:02:34.566Z,16.10
2023-01-18T22:05:08.495Z,15.05
2023-01-18T22:07:36.423Z,16.98
2023-01-18T22:10:06.611Z,18.27
2023-01-18T22:12:36.525Z,18.23
2023-01-18T22:15:04.704Z,14.05
2023-01-18T22:17:32.627Z,16.05
2023-01-18T22:20:02.218Z,17.98
2023-01-18T22:22:32.062Z,15.53
2023-01-18T22:25:02.273Z,15.93
2023-01-18T22:27:30.391Z,19.00
2023-01-18T22:29:58.168Z,17.38
2023-01-18T22:32:25.914Z,17.27
2023-01-18T22:34:54.008Z,16.63
2023-01-18T22:37:22.859Z,17.55
2023-01-18T22:40:03.664Z,16.60
2023-01-18T22:42:35.113Z,15.32
2023-01-18T22:45:05.974Z,18.65
2023-01-18T22:47:33.689Z,18.30
2023-01-18T22:50:01.908Z,22.67
2023-01-18T22:52:29.854Z,18.08
2023-01-18T22:54:59.202Z,19.48
2023-01-18T22:57:26.865Z,17.85
2023-01-18T22:59:54.611Z,17.02
2023-01-18T23:02:22.325Z,20.27
2023-01-18T23:04:52.819Z,17.10
2023-01-18T23:07:21.155Z,17.38
2023-01-18T23:09:51.243Z,21.05
2023-01-18T23:12:20.621Z,18.52
2023-01-18T23:15:06.048Z,20.63
2023-01-18T23:17:40.101Z,15.50
2023-01-18T23:20:14.718Z,17.13
2023-01-18T23:22:42.730Z,20.40
2023-01-18T23:25:12.578Z,18.27
2023-01-18T23:27:41.796Z,17.67
2023-01-18T23:30:13.977Z,19.80
2023-01-18T23:32:43.553Z,16.25
2023-01-18T23:35:13.480Z,21.45
2023-01-18T23:37:44.131Z,16.33
2023-01-18T23:40:30.474Z,21.13
2023-01-18T23:43:16.868Z,20.88
2023-01-18T23:46:03.286Z,19.73
2023-01-18T23:48:48.458Z,23.17
2023-01-18T23:51:33.750Z,19.48
2023-01-18T23:54:19.499Z,20.73
2023-01-18T23:56:48.201Z,22.07
2023-01-18T23:59:17.597Z,19.80
